Terminal Aerodrome Forecast
Issued by NWS

Home | Current Version | Previous Version | Text Only | Print | Product List | Glossary On
Versions: 1 2 3 4 5 6 7 8 9 10 11 12 13 14 15 16
000
FTUS41 KBTV 240522
TAFMSS
TAF
KMSS 240522Z 2406/2506 23007KT P6SM FEW250
     FM241500 23010G16KT P6SM FEW250
     FM250000 21005KT P6SM FEW250=

USA.gov is the U.S. government's official web portal to all federal, state and local government web resources and services.